createdAt,value
2018-04-11T00:02:44.972Z,16.80
2018-04-11T00:07:45.955Z,18.23
2018-04-11T00:12:47.674Z,19.37
2018-04-11T00:17:48.667Z,19.60
2018-04-11T00:22:49.653Z,20.10
2018-04-11T00:27:51.410Z,20.23
2018-04-11T00:32:52.422Z,20.43
2018-04-11T00:37:53.422Z,19.43
2018-04-11T00:42:54.409Z,18.23
2018-04-11T00:47:55.446Z,18.60
2018-04-11T00:53:09.542Z,17.23
2018-04-11T00:58:10.536Z,17.17
2018-04-11T01:03:11.526Z,16.13
2018-04-11T01:08:13.272Z,15.43
2018-04-11T01:13:14.281Z,15.33
2018-04-11T01:18:15.277Z,14.30
2018-04-11T01:23:16.250Z,14.53
2018-04-11T01:28:17.237Z,14.30
2018-04-11T01:33:18.985Z,12.90
2018-04-11T01:38:19.970Z,12.00
2018-04-11T01:43:21.747Z,10.33
2018-04-11T01:48:23.490Z,10.87
2018-04-11T01:53:24.470Z,11.17
2018-04-11T01:58:26.205Z,9.60
2018-04-11T02:03:27.214Z,9.30
2018-04-11T02:08:28.946Z,9.63
2018-04-11T02:13:29.937Z,10.63
2018-04-11T02:18:31.757Z,11.13
2018-04-11T02:23:32.742Z,10.83
2018-04-11T02:28:33.805Z,9.33
2018-04-11T02:33:34.810Z,8.60
2018-04-11T02:38:35.791Z,7.90
2018-04-11T02:43:36.815Z,6.53
2018-04-11T02:48:37.850Z,5.90
2018-04-11T02:53:39.594Z,5.77
2018-04-11T02:58:40.593Z,5.20
2018-04-11T03:03:42.336Z,4.47
2018-04-11T03:08:43.329Z,4.97
2018-04-11T03:13:45.054Z,4.97
2018-04-11T03:18:46.090Z,5.30
2018-04-11T03:23:47.080Z,6.00
2018-04-11T03:28:48.070Z,6.43
2018-04-11T03:33:49.847Z,6.30
2018-04-11T03:38:51.572Z,6.90
2018-04-11T03:43:52.565Z,7.20
2018-04-11T03:48:53.562Z,7.13
2018-04-11T03:53:54.553Z,7.57
2018-04-11T03:58:55.542Z,8.13
2018-04-11T04:03:57.257Z,9.27
2018-04-11T04:08:58.240Z,8.70
2018-04-11T04:14:11.661Z,9.63
2018-04-11T04:19:25.047Z,10.10
2018-04-11T04:24:26.041Z,9.83
2018-04-11T04:29:27.019Z,9.87
2018-04-11T04:34:28.017Z,8.90
2018-04-11T04:39:29.026Z,10.93
2018-04-11T04:44:30.021Z,11.87
2018-04-11T04:49:31.080Z,11.67
2018-04-11T04:54:32.083Z,10.57
2018-04-11T04:59:33.821Z,10.80
2018-04-11T05:04:34.828Z,9.70
2018-04-11T05:09:35.830Z,9.97
2018-04-11T05:14:36.811Z,10.17
2018-04-11T05:19:38.538Z,11.00
2018-04-11T05:24:39.554Z,10.50
2018-04-11T05:29:41.287Z,11.20
2018-04-11T05:34:42.285Z,10.50
2018-04-11T05:39:44.022Z,10.83
2018-04-11T05:44:45.023Z,8.53
2018-04-11T05:49:46.754Z,8.50
2018-04-11T05:54:47.742Z,8.57
2018-04-11T05:59:49.485Z,7.53
2018-04-11T06:04:50.506Z,7.80
2018-04-11T06:09:51.493Z,7.63
2018-04-11T06:14:52.502Z,7.57
2018-04-11T06:19:54.238Z,7.90
2018-04-11T06:24:55.253Z,7.90
2018-04-11T06:29:56.237Z,7.70
2018-04-11T06:34:57.238Z,7.90
2018-04-11T06:39:58.968Z,7.63
2018-04-11T06:44:59.948Z,8.40
2018-04-11T06:50:01.955Z,9.47
2018-04-11T06:55:03.669Z,8.97
2018-04-11T07:00:04.663Z,8.93
2018-04-11T07:05:05.663Z,10.50
2018-04-11T07:10:06.656Z,11.77
2018-04-11T07:15:07.653Z,11.93
2018-04-11T07:20:09.391Z,12.70
2018-04-11T07:25:10.381Z,12.00
2018-04-11T07:30:11.357Z,11.53
2018-04-11T07:35:13.074Z,12.40
2018-04-11T07:40:14.058Z,10.93
2018-04-11T07:45:15.026Z,10.70
2018-04-11T07:50:16.777Z,9.87
2018-04-11T07:55:17.765Z,9.30
2018-04-11T08:00:19.493Z,9.70
2018-04-11T08:05:20.485Z,10.00
2018-04-11T08:10:21.461Z,9.77
2018-04-11T08:15:23.190Z,9.07
2018-04-11T08:20:24.197Z,8.57
2018-04-11T08:25:25.973Z,7.60
2018-04-11T08:30:27.701Z,9.03
2018-04-11T08:35:28.752Z,8.77
2018-04-11T08:40:29.725Z,9.20
2018-04-11T08:45:30.718Z,8.57
2018-04-11T08:50:32.443Z,8.17
2018-04-11T08:55:33.444Z,5.67
2018-04-11T09:00:35.170Z,7.40
2018-04-11T09:05:36.162Z,7.20
2018-04-11T09:10:37.154Z,7.50
2018-04-11T09:15:38.133Z,6.90
2018-04-11T09:20:39.119Z,5.27
2018-04-11T09:25:40.119Z,4.53
2018-04-11T09:30:41.121Z,5.27
2018-04-11T09:35:42.121Z,4.50
2018-04-11T09:40:43.842Z,5.60
2018-04-11T09:45:44.827Z,4.40
2018-04-11T09:50:45.845Z,4.10
2018-04-11T09:55:46.869Z,4.30
2018-04-11T10:00:52.631Z,4.60
2018-04-11T10:05:54.371Z,4.17
2018-04-11T10:10:55.361Z,4.07
2018-04-11T10:15:56.355Z,5.40
2018-04-11T10:20:57.347Z,4.67
2018-04-11T10:25:58.342Z,4.80
2018-04-11T10:31:00.063Z,4.40
2018-04-11T10:36:01.106Z,4.80
2018-04-11T10:41:02.110Z,5.63
2018-04-11T10:46:03.123Z,5.47
2018-04-11T10:51:04.136Z,4.97
2018-04-11T10:56:05.138Z,5.70
2018-04-11T11:01:06.133Z,4.83
2018-04-11T11:06:07.121Z,5.50
2018-04-11T11:11:08.901Z,4.50
2018-04-11T11:16:10.649Z,4.30
2018-04-11T11:21:12.403Z,4.57
2018-04-11T11:26:13.427Z,4.60
2018-04-11T11:31:14.422Z,3.73
2018-04-11T11:36:15.436Z,4.20
2018-04-11T11:41:16.441Z,3.20
2018-04-11T11:46:17.430Z,3.23
2018-04-11T11:51:19.185Z,2.70
2018-04-11T11:56:20.177Z,2.90
2018-04-11T12:01:21.890Z,2.40
2018-04-11T12:06:22.870Z,2.10
2018-04-11T12:11:23.867Z,2.20
2018-04-11T12:16:25.602Z,2.60
2018-04-11T12:21:26.581Z,2.33
2018-04-11T12:26:28.322Z,1.93
2018-04-11T12:31:29.321Z,2.00
2018-04-11T12:36:31.066Z,1.80
2018-04-11T12:41:32.052Z,1.70
2018-04-11T12:46:33.778Z,1.70
2018-04-11T12:51:34.769Z,1.60
2018-04-11T12:56:36.519Z,2.00
2018-04-11T13:01:37.526Z,1.20
2018-04-11T13:06:38.545Z,1.20
2018-04-11T13:11:39.530Z,1.47
2018-04-11T13:16:41.263Z,1.63
2018-04-11T13:21:42.253Z,1.57
2018-04-11T13:26:43.250Z,1.80
2018-04-11T13:31:44.258Z,2.10
2018-04-11T13:36:45.281Z,1.60
2018-04-11T13:41:46.285Z,1.70
2018-04-11T13:46:48.082Z,1.60
2018-04-11T13:51:49.073Z,2.00
2018-04-11T13:56:50.055Z,1.70
2018-04-11T14:01:51.054Z,1.77
2018-04-11T14:06:52.043Z,2.00
2018-04-11T14:11:53.030Z,1.67
2018-04-11T14:16:54.037Z,2.40
2018-04-11T14:21:55.034Z,1.70
2018-04-11T14:26:56.018Z,1.70
2018-04-11T14:31:57.742Z,1.70
2018-04-11T14:36:58.723Z,1.77
2018-04-11T14:41:59.718Z,2.27
2018-04-11T14:47:01.445Z,1.87
2018-04-11T14:52:02.437Z,1.70
2018-04-11T14:57:04.160Z,1.93
2018-04-11T15:02:05.134Z,1.93
2018-04-11T15:07:06.138Z,2.23
2018-04-11T15:12:07.878Z,1.77
2018-04-11T15:17:08.868Z,1.90
2018-04-11T15:22:10.590Z,1.90
2018-04-11T15:27:11.583Z,1.70
2018-04-11T15:32:12.566Z,1.60
2018-04-11T15:37:13.547Z,1.50
2018-04-11T15:42:14.548Z,1.50
2018-04-11T15:47:15.554Z,1.57
2018-04-11T15:52:16.530Z,1.87
2018-04-11T15:57:17.515Z,1.47
2018-04-11T16:02:19.274Z,1.73
2018-04-11T16:07:20.248Z,1.60
2018-04-11T16:12:21.233Z,1.60
2018-04-11T16:17:22.957Z,1.97
2018-04-11T16:22:23.943Z,1.63
2018-04-11T16:27:24.954Z,2.00
2018-04-11T16:32:25.929Z,2.47
2018-04-11T16:37:26.912Z,2.30
2018-04-11T16:42:27.903Z,2.20
2018-04-11T16:47:28.905Z,2.70
2018-04-11T16:52:29.909Z,2.47
2018-04-11T16:57:31.622Z,3.00
2018-04-11T17:02:32.593Z,2.80
2018-04-11T17:07:33.574Z,2.90
2018-04-11T17:12:34.669Z,2.90
2018-04-11T17:17:35.665Z,2.90
2018-04-11T17:22:49.009Z,2.53
2018-04-11T17:28:02.458Z,2.60
2018-04-11T17:33:03.449Z,2.97
2018-04-11T17:38:04.457Z,2.80
2018-04-11T17:43:05.458Z,2.87
2018-04-11T17:48:06.495Z,2.53
2018-04-11T17:53:07.470Z,2.40
2018-04-11T17:58:08.468Z,2.53
2018-04-11T18:03:09.474Z,2.63
2018-04-11T18:08:10.491Z,3.07
2018-04-11T18:13:11.507Z,3.20
2018-04-11T18:18:12.498Z,3.27
2018-04-11T18:23:13.525Z,3.47
2018-04-11T18:28:14.517Z,3.53
2018-04-11T18:33:15.537Z,4.20
2018-04-11T18:38:16.527Z,3.33
2018-04-11T18:43:17.523Z,3.43
2018-04-11T18:48:18.506Z,3.10
2018-04-11T18:53:19.507Z,3.20
2018-04-11T18:58:20.506Z,3.20
2018-04-11T19:03:21.526Z,3.17
2018-04-11T19:08:22.513Z,3.27
2018-04-11T19:13:23.522Z,3.30
2018-04-11T19:18:24.531Z,3.23
2018-04-11T19:23:25.505Z,3.27
2018-04-11T19:28:26.504Z,3.73
2018-04-11T19:33:27.485Z,2.87
2018-04-11T19:38:28.474Z,3.20
2018-04-11T19:43:29.489Z,3.10
2018-04-11T19:48:30.494Z,3.10
2018-04-11T19:53:31.490Z,3.13
2018-04-11T19:58:32.478Z,3.00
2018-04-11T20:03:33.473Z,3.30
2018-04-11T20:08:34.470Z,3.30
2018-04-11T20:13:35.457Z,3.10
2018-04-11T20:18:36.466Z,3.20
2018-04-11T20:23:38.212Z,3.30
2018-04-11T20:28:39.243Z,3.57
2018-04-11T20:33:40.245Z,2.87
2018-04-11T20:38:41.994Z,3.50
2018-04-11T20:43:43.026Z,3.50
2018-04-11T20:48:44.018Z,2.90
2018-04-11T20:53:45.032Z,3.07
2018-04-11T20:58:46.022Z,3.10
2018-04-11T21:03:47.027Z,3.00
2018-04-11T21:08:48.022Z,3.20
2018-04-11T21:13:49.021Z,3.00
2018-04-11T21:18:50.751Z,3.17
2018-04-11T21:23:51.750Z,3.73
2018-04-11T21:28:53.503Z,3.17
2018-04-11T21:33:54.507Z,4.20
2018-04-11T21:38:55.518Z,3.97
2018-04-11T21:43:56.525Z,3.70
2018-04-11T21:48:57.541Z,3.60
2018-04-11T21:53:58.530Z,3.50
2018-04-11T21:58:59.531Z,3.30
2018-04-11T22:04:00.548Z,3.73
2018-04-11T22:09:01.546Z,3.60
2018-04-11T22:14:02.554Z,3.70
2018-04-11T22:19:04.301Z,3.00
2018-04-11T22:24:06.065Z,3.47
2018-04-11T22:29:07.082Z,3.17
2018-04-11T22:34:08.074Z,3.40
2018-04-11T22:39:09.077Z,3.33
2018-04-11T22:44:10.805Z,3.73
2018-04-11T22:49:11.817Z,3.83
2018-04-11T22:54:12.821Z,4.17
2018-04-11T22:59:13.845Z,3.20
2018-04-11T23:04:14.838Z,3.60
2018-04-11T23:09:15.821Z,3.50
2018-04-11T23:14:16.834Z,3.30
2018-04-11T23:19:17.834Z,3.40
2018-04-11T23:24:18.839Z,4.07
2018-04-11T23:29:19.839Z,3.93
2018-04-11T23:34:20.823Z,3.80
2018-04-11T23:39:22.561Z,3.70
2018-04-11T23:44:23.559Z,3.77
2018-04-11T23:49:25.340Z,4.40
2018-04-11T23:54:27.096Z,4.53
2018-04-11T23:59:28.080Z,5.13
